Pagrindinis puslapis
METAR-TAF:

METAR-TAF

Oro uostai :

Malacca, Malaizija

platuma: 02-16N, ilguma: 102-15E, Aukštis: 11 m

Dabartinis oras

Ataskaita buvo paskelbta 15 minutes, ne 00:00 UTC
Ramus vėjas
Temperatūra 23°C
Drėgmė 94%
Slėgis 1009 hPa
Matomumas: 1000 m
Mažai debesys ne aukštis 500 ft
rūkana

METAR: WMKM 260000Z 00000KT 1000 BR FEW005 23/22 Q1009

Laikas: 08:15 (00:15 UTC)

Prognozė

Ataskaita buvo paskelbta 1 valandą ir 15 minutes, ne 23:00 UTC
Prognozė galioja nuo 26 metu 00 UTC su 26 metu 24 UTC
Vėjas 3 kt nuo kintamojo kryptimis
Matomumas 10 km arba daugiau
Mažai debesys ne aukštis 2000 ft
Tikimybė 40% :
Laikinai
nuo 26 metu 05 UTC su 26 metu 09 UTC
Vėjas 8 kt iš Vakarų/Šiaurės Vakarų su gūsio iki 25 kt

TAF: WMKM 252300Z 2600/2624 VRB03KT 9999 FEW020 PROB40 TEMPO 2605/2609 30008G25KT

Orai ataskaitas ir orų prognozės (METAR, TAF).

turimą stotys yra geltonos ir raudonos taškus žemėlapyje.

Perkelti pele per norėdami pamatyti stoties vardą.

Tada spustelėkite, norėdami matyti oro stebėjimo ir prognozės.

Norėdami pakeisti žemėlapį: spustelėkite ant žalios mygtukų su juodo kryžiaus žemyn,; žalią mygtuką su brūkšneliu, jei norite nutolinti; arba žalių rodyklių gretimoms žemėlapius.


METAR-TAF: